sensor_id;sensor_type;location;lat;lon;timestamp;P1;durP1;ratioP1;P2;durP2;ratioP2
17753;SDS011;8999;48.994;9.150;2024-03-22T00:02:02;16.67;;;10.40;;
17753;SDS011;8999;48.994;9.150;2024-03-22T00:04:33;18.52;;;11.43;;
17753;SDS011;8999;48.994;9.150;2024-03-22T00:07:04;14.88;;;10.80;;
17753;SDS011;8999;48.994;9.150;2024-03-22T00:09:36;16.80;;;10.18;;
17753;SDS011;8999;48.994;9.150;2024-03-22T00:12:08;16.63;;;10.80;;
17753;SDS011;8999;48.994;9.150;2024-03-22T00:14:39;17.25;;;11.18;;
17753;SDS011;8999;48.994;9.150;2024-03-22T00:17:10;15.75;;;10.68;;
17753;SDS011;8999;48.994;9.150;2024-03-22T00:19:42;15.93;;;10.93;;
17753;SDS011;8999;48.994;9.150;2024-03-22T00:22:12;15.50;;;10.85;;
17753;SDS011;8999;48.994;9.150;2024-03-22T00:24:44;19.30;;;11.23;;
17753;SDS011;8999;48.994;9.150;2024-03-22T00:27:17;18.92;;;12.43;;
17753;SDS011;8999;48.994;9.150;2024-03-22T00:29:48;17.50;;;11.40;;
17753;SDS011;8999;48.994;9.150;2024-03-22T00:32:19;21.92;;;12.25;;
17753;SDS011;8999;48.994;9.150;2024-03-22T00:34:50;18.98;;;12.27;;
17753;SDS011;8999;48.994;9.150;2024-03-22T00:37:21;20.67;;;11.85;;
17753;SDS011;8999;48.994;9.150;2024-03-22T00:39:53;20.13;;;12.43;;
17753;SDS011;8999;48.994;9.150;2024-03-22T00:42:25;19.55;;;11.98;;
17753;SDS011;8999;48.994;9.150;2024-03-22T00:44:56;18.80;;;12.77;;
17753;SDS011;8999;48.994;9.150;2024-03-22T00:47:28;20.65;;;12.70;;
17753;SDS011;8999;48.994;9.150;2024-03-22T00:49:59;19.83;;;11.98;;
17753;SDS011;8999;48.994;9.150;2024-03-22T00:52:31;19.80;;;12.80;;
17753;SDS011;8999;48.994;9.150;2024-03-22T00:55:03;21.20;;;10.88;;
17753;SDS011;8999;48.994;9.150;2024-03-22T00:57:36;20.85;;;12.20;;
17753;SDS011;8999;48.994;9.150;2024-03-22T01:00:08;24.80;;;13.82;;
17753;SDS011;8999;48.994;9.150;2024-03-22T01:02:40;22.90;;;13.52;;
17753;SDS011;8999;48.994;9.150;2024-03-22T01:05:11;25.70;;;15.20;;
17753;SDS011;8999;48.994;9.150;2024-03-22T01:07:42;26.35;;;14.93;;
17753;SDS011;8999;48.994;9.150;2024-03-22T01:10:14;23.52;;;14.23;;
17753;SDS011;8999;48.994;9.150;2024-03-22T01:12:46;21.25;;;13.27;;
17753;SDS011;8999;48.994;9.150;2024-03-22T01:15:18;22.98;;;13.43;;
17753;SDS011;8999;48.994;9.150;2024-03-22T01:17:48;21.80;;;13.60;;
17753;SDS011;8999;48.994;9.150;2024-03-22T01:20:20;26.08;;;14.35;;
17753;SDS011;8999;48.994;9.150;2024-03-22T01:22:51;25.35;;;14.32;;
17753;SDS011;8999;48.994;9.150;2024-03-22T01:25:22;24.17;;;13.95;;
17753;SDS011;8999;48.994;9.150;2024-03-22T01:27:55;20.75;;;13.40;;
17753;SDS011;8999;48.994;9.150;2024-03-22T01:30:26;23.75;;;14.13;;
17753;SDS011;8999;48.994;9.150;2024-03-22T01:32:58;18.05;;;12.25;;
17753;SDS011;8999;48.994;9.150;2024-03-22T01:35:30;19.67;;;12.40;;
17753;SDS011;8999;48.994;9.150;2024-03-22T01:38:01;19.08;;;11.85;;
17753;SDS011;8999;48.994;9.150;2024-03-22T01:40:32;17.92;;;11.80;;
17753;SDS011;8999;48.994;9.150;2024-03-22T01:43:04;16.80;;;11.55;;
17753;SDS011;8999;48.994;9.150;2024-03-22T01:45:36;20.17;;;13.07;;
17753;SDS011;8999;48.994;9.150;2024-03-22T01:48:07;24.20;;;13.07;;
17753;SDS011;8999;48.994;9.150;2024-03-22T01:50:39;21.63;;;12.95;;
17753;SDS011;8999;48.994;9.150;2024-03-22T01:53:09;20.33;;;12.93;;
17753;SDS011;8999;48.994;9.150;2024-03-22T01:55:41;20.45;;;13.18;;
17753;SDS011;8999;48.994;9.150;2024-03-22T01:58:13;21.77;;;13.90;;
17753;SDS011;8999;48.994;9.150;2024-03-22T02:00:45;19.92;;;12.60;;
17753;SDS011;8999;48.994;9.150;2024-03-22T02:03:16;23.33;;;14.23;;
17753;SDS011;8999;48.994;9.150;2024-03-22T02:05:47;22.15;;;13.48;;
17753;SDS011;8999;48.994;9.150;2024-03-22T02:08:18;22.30;;;13.70;;
17753;SDS011;8999;48.994;9.150;2024-03-22T02:10:50;21.27;;;13.25;;
17753;SDS011;8999;48.994;9.150;2024-03-22T02:13:22;20.00;;;12.70;;
17753;SDS011;8999;48.994;9.150;2024-03-22T02:15:53;25.77;;;13.52;;
17753;SDS011;8999;48.994;9.150;2024-03-22T02:18:24;21.42;;;13.55;;
17753;SDS011;8999;48.994;9.150;2024-03-22T02:20:56;24.70;;;12.55;;
17753;SDS011;8999;48.994;9.150;2024-03-22T02:23:32;21.73;;;11.95;;
17753;SDS011;8999;48.994;9.150;2024-03-22T02:26:04;22.95;;;13.13;;
17753;SDS011;8999;48.994;9.150;2024-03-22T02:28:35;22.25;;;11.93;;
17753;SDS011;8999;48.994;9.150;2024-03-22T02:31:07;23.10;;;11.73;;
17753;SDS011;8999;48.994;9.150;2024-03-22T02:33:38;23.40;;;12.57;;
17753;SDS011;8999;48.994;9.150;2024-03-22T02:36:09;24.50;;;14.38;;
17753;SDS011;8999;48.994;9.150;2024-03-22T02:38:41;23.40;;;13.73;;
17753;SDS011;8999;48.994;9.150;2024-03-22T02:41:13;23.80;;;14.25;;
17753;SDS011;8999;48.994;9.150;2024-03-22T02:43:44;21.98;;;13.35;;
17753;SDS011;8999;48.994;9.150;2024-03-22T02:46:15;22.52;;;14.02;;
17753;SDS011;8999;48.994;9.150;2024-03-22T02:48:46;21.00;;;13.82;;
17753;SDS011;8999;48.994;9.150;2024-03-22T02:51:18;21.13;;;12.98;;
17753;SDS011;8999;48.994;9.150;2024-03-22T02:53:50;23.02;;;13.05;;
17753;SDS011;8999;48.994;9.150;2024-03-22T02:56:21;22.83;;;14.02;;
17753;SDS011;8999;48.994;9.150;2024-03-22T02:58:52;21.55;;;13.75;;
17753;SDS011;8999;48.994;9.150;2024-03-22T03:01:24;21.40;;;13.60;;
17753;SDS011;8999;48.994;9.150;2024-03-22T03:03:54;20.63;;;13.57;;
17753;SDS011;8999;48.994;9.150;2024-03-22T03:06:26;25.45;;;14.18;;
17753;SDS011;8999;48.994;9.150;2024-03-22T03:08:58;19.33;;;13.18;;
17753;SDS011;8999;48.994;9.150;2024-03-22T03:11:29;22.27;;;13.38;;
17753;SDS011;8999;48.994;9.150;2024-03-22T03:14:00;20.35;;;12.25;;
17753;SDS011;8999;48.994;9.150;2024-03-22T03:16:32;25.15;;;14.05;;
17753;SDS011;8999;48.994;9.150;2024-03-22T03:19:02;24.90;;;15.05;;
17753;SDS011;8999;48.994;9.150;2024-03-22T03:21:34;26.50;;;14.82;;
17753;SDS011;8999;48.994;9.150;2024-03-22T03:24:06;23.65;;;14.13;;
17753;SDS011;8999;48.994;9.150;2024-03-22T03:26:39;26.00;;;14.50;;
17753;SDS011;8999;48.994;9.150;2024-03-22T03:29:10;23.10;;;14.65;;
17753;SDS011;8999;48.994;9.150;2024-03-22T03:31:42;24.85;;;14.25;;
17753;SDS011;8999;48.994;9.150;2024-03-22T03:34:12;21.10;;;13.93;;
17753;SDS011;8999;48.994;9.150;2024-03-22T03:36:44;21.33;;;13.45;;
17753;SDS011;8999;48.994;9.150;2024-03-22T03:39:16;22.63;;;13.63;;
17753;SDS011;8999;48.994;9.150;2024-03-22T03:41:47;137.15;;;59.63;;
17753;SDS011;8999;48.994;9.150;2024-03-22T03:44:18;36.88;;;22.10;;
17753;SDS011;8999;48.994;9.150;2024-03-22T03:46:50;29.63;;;16.63;;
17753;SDS011;8999;48.994;9.150;2024-03-22T03:49:20;28.25;;;15.82;;
17753;SDS011;8999;48.994;9.150;2024-03-22T03:51:52;27.40;;;15.00;;
17753;SDS011;8999;48.994;9.150;2024-03-22T03:54:24;24.98;;;14.20;;
17753;SDS011;8999;48.994;9.150;2024-03-22T03:56:56;22.70;;;14.98;;
17753;SDS011;8999;48.994;9.150;2024-03-22T03:59:27;23.30;;;14.25;;
17753;SDS011;8999;48.994;9.150;2024-03-22T04:01:58;44.92;;;22.65;;
17753;SDS011;8999;48.994;9.150;2024-03-22T04:04:29;23.75;;;15.55;;
17753;SDS011;8999;48.994;9.150;2024-03-22T04:07:01;21.13;;;13.73;;
17753;SDS011;8999;48.994;9.150;2024-03-22T04:09:33;21.80;;;13.85;;
17753;SDS011;8999;48.994;9.150;2024-03-22T04:12:05;159.05;;;65.10;;
17753;SDS011;8999;48.994;9.150;2024-03-22T04:14:36;59.42;;;30.60;;
17753;SDS011;8999;48.994;9.150;2024-03-22T04:17:07;20.45;;;12.52;;
17753;SDS011;8999;48.994;9.150;2024-03-22T04:19:38;24.48;;;12.95;;
17753;SDS011;8999;48.994;9.150;2024-03-22T04:22:09;24.20;;;13.60;;
17753;SDS011;8999;48.994;9.150;2024-03-22T04:24:42;22.52;;;13.43;;
17753;SDS011;8999;48.994;9.150;2024-03-22T04:27:13;20.60;;;12.80;;
17753;SDS011;8999;48.994;9.150;2024-03-22T04:29:46;24.70;;;13.40;;
17753;SDS011;8999;48.994;9.150;2024-03-22T04:32:18;20.85;;;13.10;;
17753;SDS011;8999;48.994;9.150;2024-03-22T04:34:49;21.08;;;12.18;;
17753;SDS011;8999;48.994;9.150;2024-03-22T04:37:25;18.42;;;11.68;;
17753;SDS011;8999;48.994;9.150;2024-03-22T04:39:58;18.30;;;11.93;;
17753;SDS011;8999;48.994;9.150;2024-03-22T04:42:29;18.55;;;11.05;;
17753;SDS011;8999;48.994;9.150;2024-03-22T04:45:01;22.25;;;12.93;;
17753;SDS011;8999;48.994;9.150;2024-03-22T04:47:33;21.02;;;12.43;;
17753;SDS011;8999;48.994;9.150;2024-03-22T04:50:04;21.60;;;13.00;;
17753;SDS011;8999;48.994;9.150;2024-03-22T04:52:38;23.13;;;14.07;;
17753;SDS011;8999;48.994;9.150;2024-03-22T04:55:10;19.95;;;13.20;;
17753;SDS011;8999;48.994;9.150;2024-03-22T04:57:41;20.20;;;13.02;;
17753;SDS011;8999;48.994;9.150;2024-03-22T05:00:12;21.83;;;12.82;;
17753;SDS011;8999;48.994;9.150;2024-03-22T05:02:45;20.25;;;12.68;;
17753;SDS011;8999;48.994;9.150;2024-03-22T05:05:16;19.67;;;10.50;;
17753;SDS011;8999;48.994;9.150;2024-03-22T05:07:47;22.70;;;11.35;;
17753;SDS011;8999;48.994;9.150;2024-03-22T05:10:19;17.13;;;10.75;;
17753;SDS011;8999;48.994;9.150;2024-03-22T05:12:51;18.42;;;11.30;;
17753;SDS011;8999;48.994;9.150;2024-03-22T05:15:22;15.98;;;10.30;;
17753;SDS011;8999;48.994;9.150;2024-03-22T05:17:56;17.88;;;11.20;;
17753;SDS011;8999;48.994;9.150;2024-03-22T05:20:28;17.92;;;11.32;;
17753;SDS011;8999;48.994;9.150;2024-03-22T05:22:59;17.30;;;11.23;;
17753;SDS011;8999;48.994;9.150;2024-03-22T05:25:31;15.63;;;10.15;;
17753;SDS011;8999;48.994;9.150;2024-03-22T05:28:03;15.63;;;10.15;;
17753;SDS011;8999;48.994;9.150;2024-03-22T05:30:36;14.93;;;9.32;;
17753;SDS011;8999;48.994;9.150;2024-03-22T05:33:08;13.43;;;9.10;;
17753;SDS011;8999;48.994;9.150;2024-03-22T05:35:38;14.70;;;9.90;;
17753;SDS011;8999;48.994;9.150;2024-03-22T05:38:11;19.75;;;11.27;;
17753;SDS011;8999;48.994;9.150;2024-03-22T05:40:43;19.75;;;12.77;;
17753;SDS011;8999;48.994;9.150;2024-03-22T05:43:17;23.00;;;13.02;;
17753;SDS011;8999;48.994;9.150;2024-03-22T05:45:48;18.27;;;11.70;;
17753;SDS011;8999;48.994;9.150;2024-03-22T05:48:22;17.98;;;10.75;;
17753;SDS011;8999;48.994;9.150;2024-03-22T05:50:53;19.00;;;11.63;;
17753;SDS011;8999;48.994;9.150;2024-03-22T05:53:24;18.33;;;10.95;;
17753;SDS011;8999;48.994;9.150;2024-03-22T05:55:56;19.00;;;12.15;;
17753;SDS011;8999;48.994;9.150;2024-03-22T05:58:28;19.25;;;11.68;;
17753;SDS011;8999;48.994;9.150;2024-03-22T06:00:59;17.25;;;11.75;;
17753;SDS011;8999;48.994;9.150;2024-03-22T06:03:30;16.83;;;10.45;;
17753;SDS011;8999;48.994;9.150;2024-03-22T06:06:01;19.15;;;11.18;;
17753;SDS011;8999;48.994;9.150;2024-03-22T06:08:33;17.92;;;11.25;;
17753;SDS011;8999;48.994;9.150;2024-03-22T06:11:06;15.70;;;10.55;;
17753;SDS011;8999;48.994;9.150;2024-03-22T06:13:38;20.02;;;11.85;;
17753;SDS011;8999;48.994;9.150;2024-03-22T06:16:09;20.45;;;10.80;;
17753;SDS011;8999;48.994;9.150;2024-03-22T06:18:41;15.23;;;10.75;;
17753;SDS011;8999;48.994;9.150;2024-03-22T06:21:11;18.48;;;11.95;;
17753;SDS011;8999;48.994;9.150;2024-03-22T06:23:44;20.38;;;11.98;;
17753;SDS011;8999;48.994;9.150;2024-03-22T06:26:16;16.80;;;11.65;;
17753;SDS011;8999;48.994;9.150;2024-03-22T06:28:48;16.90;;;11.38;;
17753;SDS011;8999;48.994;9.150;2024-03-22T06:31:19;17.55;;;11.45;;
17753;SDS011;8999;48.994;9.150;2024-03-22T06:33:50;16.85;;;10.55;;
17753;SDS011;8999;48.994;9.150;2024-03-22T06:36:21;19.27;;;11.60;;
17753;SDS011;8999;48.994;9.150;2024-03-22T06:38:53;17.00;;;10.60;;
17753;SDS011;8999;48.994;9.150;2024-03-22T06:41:25;17.75;;;10.25;;
17753;SDS011;8999;48.994;9.150;2024-03-22T06:43:57;18.85;;;10.90;;
17753;SDS011;8999;48.994;9.150;2024-03-22T06:46:27;15.57;;;10.80;;
17753;SDS011;8999;48.994;9.150;2024-03-22T06:48:59;17.80;;;10.95;;
17753;SDS011;8999;48.994;9.150;2024-03-22T06:51:30;19.65;;;10.23;;
17753;SDS011;8999;48.994;9.150;2024-03-22T06:54:01;16.15;;;10.93;;
17753;SDS011;8999;48.994;9.150;2024-03-22T06:56:33;16.40;;;9.88;;
17753;SDS011;8999;48.994;9.150;2024-03-22T06:59:05;14.50;;;9.40;;
17753;SDS011;8999;48.994;9.150;2024-03-22T07:01:36;16.40;;;10.63;;
17753;SDS011;8999;48.994;9.150;2024-03-22T07:04:07;17.40;;;9.55;;
17753;SDS011;8999;48.994;9.150;2024-03-22T07:06:38;17.38;;;10.80;;
17753;SDS011;8999;48.994;9.150;2024-03-22T07:09:09;13.95;;;10.02;;
17753;SDS011;8999;48.994;9.150;2024-03-22T07:11:43;15.00;;;10.02;;
17753;SDS011;8999;48.994;9.150;2024-03-22T07:14:14;17.48;;;11.00;;
17753;SDS011;8999;48.994;9.150;2024-03-22T07:16:45;16.88;;;10.45;;
17753;SDS011;8999;48.994;9.150;2024-03-22T07:19:16;16.63;;;9.60;;
17753;SDS011;8999;48.994;9.150;2024-03-22T07:21:48;15.15;;;10.18;;
17753;SDS011;8999;48.994;9.150;2024-03-22T07:24:19;14.23;;;9.80;;
17753;SDS011;8999;48.994;9.150;2024-03-22T07:26:55;22.42;;;10.40;;
17753;SDS011;8999;48.994;9.150;2024-03-22T07:29:27;17.45;;;9.75;;
17753;SDS011;8999;48.994;9.150;2024-03-22T07:31:57;14.10;;;10.10;;
17753;SDS011;8999;48.994;9.150;2024-03-22T07:34:29;17.75;;;10.23;;
17753;SDS011;8999;48.994;9.150;2024-03-22T07:37:00;15.00;;;9.65;;
17753;SDS011;8999;48.994;9.150;2024-03-22T07:39:31;16.48;;;10.38;;
17753;SDS011;8999;48.994;9.150;2024-03-22T07:42:04;13.52;;;9.23;;
17753;SDS011;8999;48.994;9.150;2024-03-22T07:44:36;13.38;;;9.50;;
17753;SDS011;8999;48.994;9.150;2024-03-22T07:47:06;15.55;;;9.48;;
17753;SDS011;8999;48.994;9.150;2024-03-22T07:49:38;15.63;;;8.93;;
17753;SDS011;8999;48.994;9.150;2024-03-22T07:52:08;13.05;;;8.68;;
17753;SDS011;8999;48.994;9.150;2024-03-22T07:54:40;18.00;;;9.02;;
17753;SDS011;8999;48.994;9.150;2024-03-22T07:57:12;17.42;;;9.50;;
17753;SDS011;8999;48.994;9.150;2024-03-22T07:59:44;17.45;;;9.32;;
17753;SDS011;8999;48.994;9.150;2024-03-22T08:02:15;12.65;;;9.00;;
17753;SDS011;8999;48.994;9.150;2024-03-22T08:04:47;11.65;;;7.85;;
17753;SDS011;8999;48.994;9.150;2024-03-22T08:07:17;10.50;;;7.18;;
17753;SDS011;8999;48.994;9.150;2024-03-22T08:09:49;10.90;;;7.20;;
17753;SDS011;8999;48.994;9.150;2024-03-22T08:12:21;9.00;;;6.60;;
17753;SDS011;8999;48.994;9.150;2024-03-22T08:14:54;11.10;;;7.50;;
17753;SDS011;8999;48.994;9.150;2024-03-22T08:17:26;12.48;;;7.50;;
17753;SDS011;8999;48.994;9.150;2024-03-22T08:19:57;10.77;;;7.15;;
17753;SDS011;8999;48.994;9.150;2024-03-22T08:22:28;11.52;;;6.85;;
17753;SDS011;8999;48.994;9.150;2024-03-22T08:25:00;8.98;;;6.20;;
17753;SDS011;8999;48.994;9.150;2024-03-22T08:27:39;8.73;;;6.60;;
17753;SDS011;8999;48.994;9.150;2024-03-22T08:30:11;8.82;;;6.07;;
17753;SDS011;8999;48.994;9.150;2024-03-22T08:32:42;8.98;;;6.00;;
17753;SDS011;8999;48.994;9.150;2024-03-22T08:35:14;7.93;;;6.18;;
17753;SDS011;8999;48.994;9.150;2024-03-22T08:37:45;8.45;;;5.68;;
17753;SDS011;8999;48.994;9.150;2024-03-22T08:40:17;10.43;;;6.10;;
17753;SDS011;8999;48.994;9.150;2024-03-22T08:42:49;10.38;;;6.07;;
17753;SDS011;8999;48.994;9.150;2024-03-22T08:45:21;9.85;;;6.03;;
17753;SDS011;8999;48.994;9.150;2024-03-22T08:47:52;8.30;;;5.95;;
17753;SDS011;8999;48.994;9.150;2024-03-22T08:50:24;7.95;;;6.15;;
17753;SDS011;8999;48.994;9.150;2024-03-22T08:52:55;8.40;;;6.18;;
17753;SDS011;8999;48.994;9.150;2024-03-22T08:55:29;8.88;;;6.47;;
17753;SDS011;8999;48.994;9.150;2024-03-22T08:58:02;10.38;;;5.80;;
17753;SDS011;8999;48.994;9.150;2024-03-22T09:00:35;8.27;;;5.78;;
17753;SDS011;8999;48.994;9.150;2024-03-22T09:03:08;8.38;;;6.13;;
17753;SDS011;8999;48.994;9.150;2024-03-22T09:05:40;9.25;;;5.90;;
17753;SDS011;8999;48.994;9.150;2024-03-22T09:08:11;10.68;;;6.03;;
17753;SDS011;8999;48.994;9.150;2024-03-22T09:10:43;7.85;;;5.13;;
17753;SDS011;8999;48.994;9.150;2024-03-22T09:13:15;7.78;;;5.13;;
17753;SDS011;8999;48.994;9.150;2024-03-22T09:15:47;7.18;;;5.38;;
17753;SDS011;8999;48.994;9.150;2024-03-22T09:18:20;7.63;;;5.22;;
17753;SDS011;8999;48.994;9.150;2024-03-22T09:20:51;10.00;;;5.10;;
17753;SDS011;8999;48.994;9.150;2024-03-22T09:23:24;5.97;;;4.72;;
17753;SDS011;8999;48.994;9.150;2024-03-22T09:25:54;7.40;;;4.88;;
17753;SDS011;8999;48.994;9.150;2024-03-22T09:28:28;7.20;;;4.97;;
17753;SDS011;8999;48.994;9.150;2024-03-22T09:31:02;7.38;;;4.95;;
17753;SDS011;8999;48.994;9.150;2024-03-22T09:33:36;7.18;;;5.25;;
17753;SDS011;8999;48.994;9.150;2024-03-22T09:36:07;7.32;;;4.32;;
17753;SDS011;8999;48.994;9.150;2024-03-22T09:38:39;5.30;;;4.68;;
17753;SDS011;8999;48.994;9.150;2024-03-22T09:41:10;11.02;;;5.07;;
17753;SDS011;8999;48.994;9.150;2024-03-22T09:43:44;9.50;;;5.07;;
17753;SDS011;8999;48.994;9.150;2024-03-22T09:46:17;8.65;;;5.30;;
17753;SDS011;8999;48.994;9.150;2024-03-22T09:48:51;7.32;;;4.85;;
17753;SDS011;8999;48.994;9.150;2024-03-22T09:51:22;7.55;;;5.22;;
17753;SDS011;8999;48.994;9.150;2024-03-22T09:53:55;10.88;;;5.65;;
17753;SDS011;8999;48.994;9.150;2024-03-22T09:56:26;8.00;;;5.28;;
17753;SDS011;8999;48.994;9.150;2024-03-22T09:59:00;7.70;;;5.50;;
17753;SDS011;8999;48.994;9.150;2024-03-22T10:01:31;6.57;;;4.90;;
17753;SDS011;8999;48.994;9.150;2024-03-22T10:04:04;9.27;;;4.97;;
17753;SDS011;8999;48.994;9.150;2024-03-22T10:06:35;13.77;;;5.75;;
17753;SDS011;8999;48.994;9.150;2024-03-22T10:09:07;7.18;;;4.80;;
17753;SDS011;8999;48.994;9.150;2024-03-22T10:11:38;9.07;;;5.15;;
17753;SDS011;8999;48.994;9.150;2024-03-22T10:14:11;6.93;;;4.75;;
17753;SDS011;8999;48.994;9.150;2024-03-22T10:16:42;6.75;;;4.63;;
17753;SDS011;8999;48.994;9.150;2024-03-22T10:19:14;6.82;;;4.90;;
17753;SDS011;8999;48.994;9.150;2024-03-22T10:21:47;6.57;;;4.55;;
17753;SDS011;8999;48.994;9.150;2024-03-22T10:24:19;6.90;;;5.00;;
17753;SDS011;8999;48.994;9.150;2024-03-22T10:26:50;7.80;;;4.90;;
17753;SDS011;8999;48.994;9.150;2024-03-22T10:29:23;6.68;;;4.95;;
17753;SDS011;8999;48.994;9.150;2024-03-22T10:31:54;6.72;;;4.82;;
17753;SDS011;8999;48.994;9.150;2024-03-22T10:34:26;7.70;;;5.10;;
17753;SDS011;8999;48.994;9.150;2024-03-22T10:36:58;7.15;;;4.88;;
17753;SDS011;8999;48.994;9.150;2024-03-22T10:39:31;7.18;;;5.05;;
17753;SDS011;8999;48.994;9.150;2024-03-22T10:42:02;6.38;;;4.55;;
17753;SDS011;8999;48.994;9.150;2024-03-22T10:44:35;6.75;;;4.53;;
17753;SDS011;8999;48.994;9.150;2024-03-22T10:47:06;5.97;;;4.22;;
17753;SDS011;8999;48.994;9.150;2024-03-22T10:49:41;5.18;;;4.68;;
17753;SDS011;8999;48.994;9.150;2024-03-22T10:52:11;9.43;;;5.25;;
17753;SDS011;8999;48.994;9.150;2024-03-22T10:54:43;8.40;;;4.65;;
17753;SDS011;8999;48.994;9.150;2024-03-22T10:57:15;5.22;;;4.00;;
17753;SDS011;8999;48.994;9.150;2024-03-22T10:59:48;9.48;;;4.85;;
17753;SDS011;8999;48.994;9.150;2024-03-22T11:02:19;6.25;;;4.18;;
17753;SDS011;8999;48.994;9.150;2024-03-22T11:04:56;8.32;;;4.78;;
17753;SDS011;8999;48.994;9.150;2024-03-22T11:07:28;6.50;;;3.90;;
17753;SDS011;8999;48.994;9.150;2024-03-22T11:10:00;7.85;;;3.90;;
17753;SDS011;8999;48.994;9.150;2024-03-22T11:12:33;7.50;;;4.65;;
17753;SDS011;8999;48.994;9.150;2024-03-22T11:15:10;6.32;;;4.50;;
17753;SDS011;8999;48.994;9.150;2024-03-22T11:17:42;6.53;;;4.15;;
17753;SDS011;8999;48.994;9.150;2024-03-22T11:20:14;7.32;;;4.43;;
17753;SDS011;8999;48.994;9.150;2024-03-22T11:22:45;12.00;;;5.65;;
17753;SDS011;8999;48.994;9.150;2024-03-22T11:25:17;7.03;;;4.85;;
17753;SDS011;8999;48.994;9.150;2024-03-22T11:27:49;6.28;;;4.70;;
17753;SDS011;8999;48.994;9.150;2024-03-22T11:30:22;7.03;;;5.20;;
17753;SDS011;8999;48.994;9.150;2024-03-22T11:32:54;8.13;;;4.93;;
17753;SDS011;8999;48.994;9.150;2024-03-22T11:35:26;6.60;;;3.58;;
17753;SDS011;8999;48.994;9.150;2024-03-22T11:37:57;4.78;;;3.47;;
17753;SDS011;8999;48.994;9.150;2024-03-22T11:40:29;6.13;;;2.60;;
17753;SDS011;8999;48.994;9.150;2024-03-22T11:43:00;4.65;;;3.22;;
17753;SDS011;8999;48.994;9.150;2024-03-22T11:45:34;3.80;;;2.70;;
17753;SDS011;8999;48.994;9.150;2024-03-22T11:48:05;3.85;;;2.47;;
17753;SDS011;8999;48.994;9.150;2024-03-22T11:50:37;2.80;;;2.00;;
17753;SDS011;8999;48.994;9.150;2024-03-22T11:53:08;4.40;;;2.40;;
17753;SDS011;8999;48.994;9.150;2024-03-22T11:55:40;5.47;;;2.50;;
17753;SDS011;8999;48.994;9.150;2024-03-22T11:58:11;6.18;;;3.88;;
17753;SDS011;8999;48.994;9.150;2024-03-22T12:00:44;5.95;;;3.80;;
17753;SDS011;8999;48.994;9.150;2024-03-22T12:03:14;4.15;;;2.60;;
17753;SDS011;8999;48.994;9.150;2024-03-22T12:05:46;5.63;;;2.58;;
17753;SDS011;8999;48.994;9.150;2024-03-22T12:08:18;6.72;;;3.10;;
17753;SDS011;8999;48.994;9.150;2024-03-22T12:10:50;6.35;;;3.55;;
17753;SDS011;8999;48.994;9.150;2024-03-22T12:13:21;4.32;;;3.10;;
17753;SDS011;8999;48.994;9.150;2024-03-22T12:15:54;5.03;;;3.05;;
17753;SDS011;8999;48.994;9.150;2024-03-22T12:18:24;5.10;;;2.70;;
17753;SDS011;8999;48.994;9.150;2024-03-22T12:20:56;5.45;;;2.58;;
17753;SDS011;8999;48.994;9.150;2024-03-22T12:23:27;4.82;;;3.05;;
17753;SDS011;8999;48.994;9.150;2024-03-22T12:25:59;5.78;;;3.65;;
17753;SDS011;8999;48.994;9.150;2024-03-22T12:28:30;5.25;;;3.08;;
17753;SDS011;8999;48.994;9.150;2024-03-22T12:31:03;6.40;;;3.08;;
17753;SDS011;8999;48.994;9.150;2024-03-22T12:33:34;4.65;;;2.70;;
17753;SDS011;8999;48.994;9.150;2024-03-22T12:36:06;4.68;;;3.17;;
17753;SDS011;8999;48.994;9.150;2024-03-22T12:38:37;5.50;;;2.72;;
17753;SDS011;8999;48.994;9.150;2024-03-22T12:41:08;4.32;;;2.65;;
17753;SDS011;8999;48.994;9.150;2024-03-22T12:43:39;3.85;;;2.38;;
17753;SDS011;8999;48.994;9.150;2024-03-22T12:46:14;4.85;;;2.88;;
17753;SDS011;8999;48.994;9.150;2024-03-22T12:48:45;5.53;;;2.45;;
17753;SDS011;8999;48.994;9.150;2024-03-22T12:51:16;4.88;;;2.67;;
17753;SDS011;8999;48.994;9.150;2024-03-22T12:53:48;5.90;;;2.58;;
17753;SDS011;8999;48.994;9.150;2024-03-22T12:56:19;4.45;;;2.42;;
17753;SDS011;8999;48.994;9.150;2024-03-22T12:58:50;3.70;;;2.15;;
17753;SDS011;8999;48.994;9.150;2024-03-22T13:01:23;3.60;;;2.30;;
17753;SDS011;8999;48.994;9.150;2024-03-22T13:03:54;3.47;;;2.33;;
17753;SDS011;8999;48.994;9.150;2024-03-22T13:06:26;4.47;;;2.50;;
17753;SDS011;8999;48.994;9.150;2024-03-22T13:08:57;3.72;;;2.53;;
17753;SDS011;8999;48.994;9.150;2024-03-22T13:11:29;2.45;;;2.10;;
17753;SDS011;8999;48.994;9.150;2024-03-22T13:13:59;2.35;;;1.83;;
17753;SDS011;8999;48.994;9.150;2024-03-22T13:16:32;3.97;;;2.35;;
17753;SDS011;8999;48.994;9.150;2024-03-22T13:19:04;3.42;;;2.00;;
17753;SDS011;8999;48.994;9.150;2024-03-22T13:21:38;2.45;;;1.92;;
17753;SDS011;8999;48.994;9.150;2024-03-22T13:24:09;4.53;;;2.00;;
17753;SDS011;8999;48.994;9.150;2024-03-22T13:26:40;3.88;;;1.90;;
17753;SDS011;8999;48.994;9.150;2024-03-22T13:29:11;4.25;;;2.17;;
17753;SDS011;8999;48.994;9.150;2024-03-22T13:31:45;5.65;;;2.30;;
17753;SDS011;8999;48.994;9.150;2024-03-22T13:34:16;3.88;;;1.80;;
17753;SDS011;8999;48.994;9.150;2024-03-22T13:36:47;2.80;;;1.90;;
17753;SDS011;8999;48.994;9.150;2024-03-22T13:39:18;1.60;;;1.50;;
17753;SDS011;8999;48.994;9.150;2024-03-22T13:41:50;3.58;;;1.83;;
17753;SDS011;8999;48.994;9.150;2024-03-22T13:44:20;2.53;;;1.90;;
17753;SDS011;8999;48.994;9.150;2024-03-22T13:46:53;3.53;;;1.80;;
17753;SDS011;8999;48.994;9.150;2024-03-22T13:49:25;3.22;;;1.60;;
17753;SDS011;8999;48.994;9.150;2024-03-22T13:51:57;5.07;;;1.80;;
17753;SDS011;8999;48.994;9.150;2024-03-22T13:54:29;3.35;;;1.63;;
17753;SDS011;8999;48.994;9.150;2024-03-22T13:57:00;1.52;;;1.20;;
17753;SDS011;8999;48.994;9.150;2024-03-22T13:59:31;2.67;;;1.40;;
17753;SDS011;8999;48.994;9.150;2024-03-22T14:02:05;2.25;;;1.13;;
17753;SDS011;8999;48.994;9.150;2024-03-22T14:04:36;13.40;;;7.55;;
17753;SDS011;8999;48.994;9.150;2024-03-22T14:07:07;2.60;;;1.15;;
17753;SDS011;8999;48.994;9.150;2024-03-22T14:09:39;2.42;;;1.10;;
17753;SDS011;8999;48.994;9.150;2024-03-22T14:12:13;12.20;;;4.72;;
17753;SDS011;8999;48.994;9.150;2024-03-22T14:14:43;6.70;;;1.40;;
17753;SDS011;8999;48.994;9.150;2024-03-22T14:17:16;2.25;;;1.20;;
17753;SDS011;8999;48.994;9.150;2024-03-22T14:19:48;1.23;;;1.02;;
17753;SDS011;8999;48.994;9.150;2024-03-22T14:22:19;2.40;;;1.10;;
17753;SDS011;8999;48.994;9.150;2024-03-22T14:24:50;2.78;;;1.65;;
17753;SDS011;8999;48.994;9.150;2024-03-22T14:27:22;2.47;;;1.60;;
17753;SDS011;8999;48.994;9.150;2024-03-22T14:29:53;2.55;;;1.02;;
17753;SDS011;8999;48.994;9.150;2024-03-22T14:32:26;2.20;;;1.40;;
17753;SDS011;8999;48.994;9.150;2024-03-22T14:34:57;2.28;;;1.20;;
17753;SDS011;8999;48.994;9.150;2024-03-22T14:37:28;2.33;;;1.10;;
17753;SDS011;8999;48.994;9.150;2024-03-22T14:39:59;2.00;;;1.40;;
17753;SDS011;8999;48.994;9.150;2024-03-22T14:42:31;2.95;;;1.33;;
17753;SDS011;8999;48.994;9.150;2024-03-22T14:45:02;1.52;;;1.40;;
17753;SDS011;8999;48.994;9.150;2024-03-22T14:47:36;1.58;;;1.20;;
17753;SDS011;8999;48.994;9.150;2024-03-22T14:50:07;2.13;;;1.20;;
17753;SDS011;8999;48.994;9.150;2024-03-22T14:52:39;3.78;;;1.63;;
17753;SDS011;8999;48.994;9.150;2024-03-22T14:55:09;2.13;;;1.45;;
17753;SDS011;8999;48.994;9.150;2024-03-22T14:57:41;6.07;;;1.60;;
17753;SDS011;8999;48.994;9.150;2024-03-22T15:00:13;3.03;;;1.50;;
17753;SDS011;8999;48.994;9.150;2024-03-22T15:02:47;31.98;;;11.82;;
17753;SDS011;8999;48.994;9.150;2024-03-22T15:05:18;3.72;;;1.92;;
17753;SDS011;8999;48.994;9.150;2024-03-22T15:07:49;1.90;;;1.50;;
17753;SDS011;8999;48.994;9.150;2024-03-22T15:10:20;3.28;;;1.80;;
17753;SDS011;8999;48.994;9.150;2024-03-22T15:12:53;7.03;;;3.63;;
17753;SDS011;8999;48.994;9.150;2024-03-22T15:15:23;4.70;;;2.00;;